createdAt,value
2018-10-06T00:00:42.424Z,15.70
2018-10-06T00:03:11.064Z,17.50
2018-10-06T00:05:39.762Z,14.63
2018-10-06T00:08:08.418Z,12.53
2018-10-06T00:10:37.054Z,14.13
2018-10-06T00:13:05.737Z,12.77
2018-10-06T00:15:34.401Z,12.70
2018-10-06T00:18:03.067Z,11.97
2018-10-06T00:20:31.706Z,12.30
2018-10-06T00:23:00.413Z,15.80
2018-10-06T00:25:29.044Z,15.40
2018-10-06T00:27:57.693Z,14.63
2018-10-06T00:30:26.381Z,12.23
2018-10-06T00:32:55.049Z,13.70
2018-10-06T00:35:23.705Z,14.90
2018-10-06T00:37:52.395Z,16.93
2018-10-06T00:40:21.011Z,14.63
2018-10-06T00:42:49.607Z,13.63
2018-10-06T00:45:18.245Z,12.53
2018-10-06T00:47:46.917Z,16.00
2018-10-06T00:50:15.480Z,12.90
2018-10-06T00:52:44.144Z,15.10
2018-10-06T00:55:12.728Z,16.77
2018-10-06T00:57:41.386Z,15.13
2018-10-06T01:00:10.053Z,15.33
2018-10-06T01:02:38.708Z,15.30
2018-10-06T01:05:07.481Z,16.10
2018-10-06T01:07:36.193Z,15.87
2018-10-06T01:10:04.905Z,18.27
2018-10-06T01:12:33.557Z,15.67
2018-10-06T01:15:02.180Z,21.67
2018-10-06T01:17:30.841Z,18.90
2018-10-06T01:19:59.454Z,19.17
2018-10-06T01:22:28.065Z,17.10
2018-10-06T01:24:56.680Z,16.47
2018-10-06T01:27:25.284Z,21.33
2018-10-06T01:29:54.042Z,20.17
2018-10-06T01:32:22.713Z,17.57
2018-10-06T01:34:51.366Z,23.47
2018-10-06T01:37:19.992Z,19.40
2018-10-06T01:39:48.668Z,17.93
2018-10-06T01:42:17.358Z,16.93
2018-10-06T01:44:45.998Z,19.80
2018-10-06T01:47:14.596Z,19.77
2018-10-06T01:49:43.279Z,16.13
2018-10-06T01:52:11.965Z,21.50
2018-10-06T01:54:40.568Z,19.07
2018-10-06T01:57:09.273Z,24.57
2018-10-06T01:59:37.914Z,20.83
2018-10-06T02:02:06.870Z,18.13
2018-10-06T02:04:35.581Z,19.90
2018-10-06T02:07:04.232Z,22.30
2018-10-06T02:09:32.917Z,18.83
2018-10-06T02:12:01.562Z,17.80
2018-10-06T02:14:30.175Z,22.40
2018-10-06T02:16:58.832Z,18.13
2018-10-06T02:19:27.507Z,19.30
2018-10-06T02:21:56.242Z,22.00
2018-10-06T02:24:24.876Z,21.03
2018-10-06T02:26:53.513Z,23.13
2018-10-06T02:29:22.182Z,19.00
2018-10-06T02:31:50.839Z,20.53
2018-10-06T02:34:19.521Z,22.50
2018-10-06T02:36:48.202Z,21.83
2018-10-06T02:39:16.864Z,21.60
2018-10-06T02:41:45.477Z,19.23
2018-10-06T02:44:14.125Z,20.87
2018-10-06T02:46:42.756Z,22.27
2018-10-06T02:49:11.360Z,24.77
2018-10-06T02:51:40.004Z,22.30
2018-10-06T02:54:08.628Z,20.70
2018-10-06T02:56:37.300Z,19.93
2018-10-06T02:59:06.010Z,24.37
2018-10-06T03:01:34.700Z,25.33
2018-10-06T03:04:03.354Z,22.70
2018-10-06T03:06:31.979Z,23.63
2018-10-06T03:09:00.619Z,24.83
2018-10-06T03:11:29.240Z,19.80
2018-10-06T03:13:57.912Z,22.90
2018-10-06T03:16:26.532Z,25.13
2018-10-06T03:18:55.184Z,24.07
2018-10-06T03:21:23.840Z,27.10
2018-10-06T03:23:52.458Z,29.50
2018-10-06T03:26:21.300Z,27.23
2018-10-06T03:28:49.928Z,24.43
2018-10-06T03:31:18.594Z,28.83
2018-10-06T03:33:47.243Z,25.00
2018-10-06T03:36:15.885Z,23.13
2018-10-06T03:38:44.545Z,25.90
2018-10-06T03:41:13.167Z,23.37
2018-10-06T03:43:41.756Z,22.80
2018-10-06T03:46:11.365Z,24.97
2018-10-06T03:48:40.012Z,29.00
2018-10-06T03:51:08.749Z,24.50
2018-10-06T03:53:37.522Z,28.13
2018-10-06T03:56:06.207Z,23.70
2018-10-06T03:58:34.863Z,26.40
2018-10-06T04:01:03.485Z,23.37
2018-10-06T04:03:32.148Z,24.17
2018-10-06T04:06:00.784Z,25.10
2018-10-06T04:08:29.425Z,28.30
2018-10-06T04:10:58.065Z,24.80
2018-10-06T04:13:26.662Z,25.30
2018-10-06T04:15:55.300Z,25.77
2018-10-06T04:18:23.924Z,24.93
2018-10-06T04:20:52.569Z,25.90
2018-10-06T04:23:21.213Z,31.50
2018-10-06T04:25:49.803Z,30.47
2018-10-06T04:28:18.535Z,28.50
2018-10-06T04:30:47.140Z,28.20
2018-10-06T04:33:15.756Z,25.50
2018-10-06T04:35:44.426Z,24.37
2018-10-06T04:38:13.066Z,28.67
2018-10-06T04:40:41.684Z,25.23
2018-10-06T04:43:10.366Z,26.23
2018-10-06T04:45:39.058Z,28.53
2018-10-06T04:48:07.804Z,28.40
2018-10-06T04:50:36.432Z,24.90
2018-10-06T04:53:05.138Z,25.10
2018-10-06T04:55:33.829Z,22.50
2018-10-06T04:58:02.549Z,28.60
2018-10-06T05:00:31.190Z,27.80
2018-10-06T05:02:59.816Z,23.63
2018-10-06T05:05:28.528Z,21.43
2018-10-06T05:07:57.190Z,26.80
2018-10-06T05:10:25.825Z,24.80
2018-10-06T05:12:54.494Z,26.43
2018-10-06T05:15:23.131Z,26.50
2018-10-06T05:17:51.857Z,32.30
2018-10-06T05:20:20.491Z,25.60
2018-10-06T05:22:49.884Z,23.97
2018-10-06T05:25:18.601Z,23.77
2018-10-06T05:27:47.253Z,26.30
2018-10-06T05:30:15.892Z,26.67
2018-10-06T05:32:44.529Z,26.80
2018-10-06T05:35:13.246Z,26.47
2018-10-06T05:37:41.880Z,22.57
2018-10-06T05:40:10.515Z,30.73
2018-10-06T05:42:39.125Z,24.67
2018-10-06T05:45:07.760Z,29.33
2018-10-06T05:47:36.414Z,25.27
2018-10-06T05:50:05.598Z,26.70
2018-10-06T05:52:34.250Z,30.20
2018-10-06T05:55:02.897Z,27.37
2018-10-06T05:57:31.582Z,28.40
2018-10-06T06:00:00.228Z,25.53
2018-10-06T06:02:28.878Z,29.27
2018-10-06T06:04:57.595Z,35.60
2018-10-06T06:07:26.225Z,33.80
2018-10-06T06:09:54.871Z,32.10
2018-10-06T06:12:23.526Z,27.97
2018-10-06T06:14:52.193Z,27.97
2018-10-06T06:17:20.848Z,34.63
2018-10-06T06:19:49.539Z,36.47
2018-10-06T06:22:18.175Z,35.50
2018-10-06T06:24:46.817Z,34.00
2018-10-06T06:27:15.486Z,34.40
2018-10-06T06:29:44.173Z,32.97
2018-10-06T06:32:12.809Z,83.33
2018-10-06T06:34:41.456Z,62.73
2018-10-06T06:37:10.230Z,43.00
2018-10-06T06:39:38.824Z,43.33
2018-10-06T06:42:07.787Z,37.93
2018-10-06T06:44:36.587Z,41.90
2018-10-06T06:47:05.562Z,43.23
2018-10-06T06:49:34.260Z,52.00
2018-10-06T06:52:03.181Z,45.47
2018-10-06T06:54:32.146Z,40.93
2018-10-06T06:57:00.805Z,39.23
2018-10-06T06:59:29.469Z,47.00
2018-10-06T07:01:58.094Z,43.00
2018-10-06T07:04:26.820Z,49.97
2018-10-06T07:06:55.447Z,56.40
2018-10-06T07:09:24.137Z,50.43
2018-10-06T07:11:52.759Z,61.23
2018-10-06T07:14:21.406Z,63.83
2018-10-06T07:16:50.066Z,67.33
2018-10-06T07:19:18.766Z,62.20
2018-10-06T07:21:47.429Z,64.90
2018-10-06T07:24:16.084Z,66.27
2018-10-06T07:26:44.759Z,74.40
2018-10-06T07:29:13.414Z,66.70
2018-10-06T07:31:42.026Z,66.97
2018-10-06T07:34:10.664Z,70.03
2018-10-06T07:36:39.405Z,73.37
2018-10-06T07:39:08.147Z,66.27
2018-10-06T07:41:36.797Z,79.13
2018-10-06T07:44:05.437Z,68.73
2018-10-06T07:46:34.105Z,68.13
2018-10-06T07:49:02.734Z,65.87
2018-10-06T07:51:31.343Z,61.40
2018-10-06T07:53:59.956Z,64.03
2018-10-06T07:56:28.616Z,91.07
2018-10-06T07:58:57.221Z,57.00
2018-10-06T08:01:25.853Z,47.83
2018-10-06T08:03:54.540Z,51.00
2018-10-06T08:06:23.243Z,44.33
2018-10-06T08:08:51.883Z,47.47
2018-10-06T08:11:20.519Z,48.80
2018-10-06T08:13:49.221Z,42.90
2018-10-06T08:16:17.897Z,37.27
2018-10-06T08:18:46.577Z,40.63
2018-10-06T08:21:15.196Z,36.40
2018-10-06T08:23:43.865Z,37.30
2018-10-06T08:26:12.529Z,36.00
2018-10-06T08:28:41.191Z,35.87
2018-10-06T08:31:09.817Z,36.13
2018-10-06T08:33:38.517Z,34.23
2018-10-06T08:36:07.112Z,32.90
2018-10-06T08:38:35.858Z,30.87
2018-10-06T08:41:04.581Z,32.40
2018-10-06T08:43:33.200Z,33.53
2018-10-06T08:46:01.866Z,28.73
2018-10-06T08:48:30.473Z,30.23
2018-10-06T08:50:59.131Z,29.30
2018-10-06T08:53:27.814Z,27.93
2018-10-06T08:55:56.484Z,27.90
2018-10-06T08:58:25.334Z,25.53
2018-10-06T09:00:54.023Z,26.03
2018-10-06T09:03:22.655Z,23.03
2018-10-06T09:05:51.327Z,21.00
2018-10-06T09:08:19.972Z,19.10
2018-10-06T09:10:48.625Z,18.53
2018-10-06T09:13:17.310Z,18.30
2018-10-06T09:15:45.997Z,20.60
2018-10-06T09:18:14.620Z,15.37
2018-10-06T09:20:43.273Z,18.50
2018-10-06T09:23:11.905Z,14.67
2018-10-06T09:25:40.536Z,14.57
2018-10-06T09:28:09.269Z,16.00
2018-10-06T09:30:37.916Z,14.57
2018-10-06T09:33:06.760Z,15.37
2018-10-06T09:35:35.719Z,16.87
2018-10-06T09:38:04.406Z,14.60
2018-10-06T09:40:33.048Z,14.00
2018-10-06T09:43:01.721Z,13.93
2018-10-06T09:45:30.465Z,15.13
2018-10-06T09:47:59.138Z,14.60
2018-10-06T09:50:27.769Z,13.00
2018-10-06T09:52:56.461Z,11.43
2018-10-06T09:55:25.065Z,12.77
2018-10-06T09:57:53.709Z,11.90
2018-10-06T10:00:27.718Z,11.23
2018-10-06T10:03:01.597Z,12.23
2018-10-06T10:05:35.581Z,10.30
2018-10-06T10:08:04.127Z,11.03
2018-10-06T10:10:32.794Z,10.97
2018-10-06T10:13:01.477Z,10.00
2018-10-06T10:15:30.230Z,11.20
2018-10-06T10:17:58.864Z,10.23
2018-10-06T10:20:27.527Z,10.10
2018-10-06T10:22:57.124Z,10.17
2018-10-06T10:25:25.773Z,8.73
2018-10-06T10:27:54.444Z,8.30
2018-10-06T10:30:23.085Z,9.30
2018-10-06T10:32:51.701Z,7.63
2018-10-06T10:35:20.361Z,6.67
2018-10-06T10:37:48.971Z,7.33
2018-10-06T10:40:17.615Z,9.10
2018-10-06T10:42:46.265Z,6.13
2018-10-06T10:45:14.878Z,5.93
2018-10-06T10:47:43.642Z,6.27
2018-10-06T10:50:12.289Z,6.10
2018-10-06T10:52:40.913Z,5.10
2018-10-06T10:55:10.485Z,6.90
2018-10-06T10:57:39.148Z,7.20
2018-10-06T11:00:08.170Z,6.20
2018-10-06T11:02:39.209Z,6.50
2018-10-06T11:05:07.893Z,6.13
2018-10-06T11:07:36.571Z,9.10
2018-10-06T11:10:05.309Z,7.70
2018-10-06T11:12:33.941Z,7.10
2018-10-06T11:15:02.633Z,6.60
2018-10-06T11:17:31.284Z,11.70
2018-10-06T11:19:59.952Z,6.00
2018-10-06T11:22:28.565Z,9.97
2018-10-06T11:24:57.265Z,6.80
2018-10-06T11:27:25.873Z,6.70
2018-10-06T11:29:54.490Z,6.80
2018-10-06T11:32:23.196Z,6.50
2018-10-06T11:34:52.056Z,8.80
2018-10-06T11:37:20.912Z,8.00
2018-10-06T11:39:49.491Z,7.03
2018-10-06T11:42:18.110Z,7.00
2018-10-06T11:44:46.768Z,6.17
2018-10-06T11:47:15.414Z,6.43
2018-10-06T11:49:44.101Z,5.80
2018-10-06T11:52:12.743Z,5.17
2018-10-06T11:54:41.353Z,6.17
2018-10-06T11:57:10.032Z,5.57
2018-10-06T11:59:38.712Z,5.90
2018-10-06T12:02:07.389Z,6.40
2018-10-06T12:04:36.048Z,5.90
2018-10-06T12:07:04.758Z,7.07
2018-10-06T12:09:33.465Z,8.13
2018-10-06T12:12:02.093Z,6.40
2018-10-06T12:14:30.783Z,4.17
2018-10-06T12:16:59.415Z,4.73
2018-10-06T12:19:28.033Z,6.00
2018-10-06T12:21:56.784Z,5.53
2018-10-06T12:24:25.417Z,8.27
2018-10-06T12:26:54.045Z,8.33
2018-10-06T12:29:22.668Z,7.57
2018-10-06T12:31:51.301Z,5.43
2018-10-06T12:34:19.989Z,5.30
2018-10-06T12:36:48.590Z,5.60
2018-10-06T12:39:17.274Z,5.00
2018-10-06T12:41:45.853Z,6.90
2018-10-06T12:44:14.440Z,5.17
2018-10-06T12:46:43.046Z,7.20
2018-10-06T12:49:11.674Z,7.00
2018-10-06T12:51:40.334Z,5.63
2018-10-06T12:54:08.927Z,5.20
2018-10-06T12:56:37.573Z,5.47
2018-10-06T12:59:06.419Z,4.33
2018-10-06T13:01:35.089Z,5.33
2018-10-06T13:04:03.725Z,4.80
2018-10-06T13:06:32.470Z,6.30
2018-10-06T13:09:01.217Z,8.27
2018-10-06T13:11:29.823Z,5.67
2018-10-06T13:13:58.464Z,5.20
2018-10-06T13:16:27.092Z,5.67
2018-10-06T13:18:55.794Z,6.00
2018-10-06T13:21:24.414Z,4.90
2018-10-06T13:23:53.046Z,5.40
2018-10-06T13:26:21.753Z,4.67
2018-10-06T13:28:50.378Z,3.70
2018-10-06T13:31:19.018Z,5.90
2018-10-06T13:33:47.632Z,7.37
2018-10-06T13:36:16.306Z,4.57
2018-10-06T13:38:44.942Z,5.20
2018-10-06T13:41:13.597Z,5.07
2018-10-06T13:43:42.271Z,5.57
2018-10-06T13:46:10.932Z,6.90
2018-10-06T13:48:39.600Z,7.43
2018-10-06T13:51:08.430Z,6.93
2018-10-06T13:53:37.044Z,6.37
2018-10-06T13:56:05.755Z,4.67
2018-10-06T13:58:34.388Z,4.93
2018-10-06T14:01:03.010Z,5.00
2018-10-06T14:03:31.701Z,6.33
2018-10-06T14:06:00.344Z,5.70
2018-10-06T14:08:28.981Z,7.73
2018-10-06T14:10:57.623Z,7.00
2018-10-06T14:13:26.240Z,7.00
2018-10-06T14:15:54.875Z,7.27
2018-10-06T14:18:23.468Z,7.03
2018-10-06T14:20:52.164Z,6.60
2018-10-06T14:23:20.744Z,5.07
2018-10-06T14:25:49.343Z,5.53
2018-10-06T14:28:17.948Z,5.63
2018-10-06T14:30:46.593Z,5.27
2018-10-06T14:33:15.231Z,6.00
2018-10-06T14:35:43.896Z,6.53
2018-10-06T14:38:12.565Z,6.03
2018-10-06T14:40:41.294Z,6.53
2018-10-06T14:43:09.950Z,5.70
2018-10-06T14:45:38.530Z,6.47
2018-10-06T14:48:07.158Z,6.43
2018-10-06T14:50:35.795Z,5.43
2018-10-06T14:53:04.452Z,5.00
2018-10-06T14:55:33.081Z,10.00
2018-10-06T14:58:01.824Z,5.93
2018-10-06T15:00:30.494Z,5.17
2018-10-06T15:02:59.097Z,6.83
2018-10-06T15:05:27.710Z,6.47
2018-10-06T15:07:56.344Z,5.30
2018-10-06T15:10:25.101Z,6.10
2018-10-06T15:12:53.751Z,7.37
2018-10-06T15:15:22.384Z,5.80
2018-10-06T15:17:51.089Z,6.30
2018-10-06T15:20:19.713Z,8.57
2018-10-06T15:22:48.345Z,5.10
2018-10-06T15:25:17.024Z,5.33
2018-10-06T15:27:45.718Z,6.03
2018-10-06T15:30:14.317Z,7.20
2018-10-06T15:32:42.941Z,8.13
2018-10-06T15:35:11.609Z,7.30
2018-10-06T15:37:40.292Z,7.00
2018-10-06T15:40:08.984Z,5.93
2018-10-06T15:42:37.742Z,8.17
2018-10-06T15:45:06.666Z,8.30
2018-10-06T15:47:35.327Z,8.83
2018-10-06T15:50:04.083Z,10.20
2018-10-06T15:52:32.740Z,8.77
2018-10-06T15:55:01.378Z,6.83
2018-10-06T15:57:30.055Z,8.00
2018-10-06T15:59:58.686Z,6.53
2018-10-06T16:02:27.375Z,6.10
2018-10-06T16:04:56.077Z,8.20
2018-10-06T16:07:24.746Z,7.30
2018-10-06T16:09:53.525Z,6.20
2018-10-06T16:12:22.141Z,8.03
2018-10-06T16:14:50.813Z,9.30
2018-10-06T16:17:19.443Z,6.90
2018-10-06T16:19:48.434Z,7.00
2018-10-06T16:22:17.104Z,6.87
2018-10-06T16:24:45.680Z,7.10
2018-10-06T16:27:14.438Z,6.57
2018-10-06T16:29:43.071Z,9.93
2018-10-06T16:32:11.729Z,7.93
2018-10-06T16:34:40.421Z,6.23
2018-10-06T16:37:09.080Z,6.37
2018-10-06T16:39:37.777Z,7.00
2018-10-06T16:42:06.464Z,7.33
2018-10-06T16:44:35.090Z,6.80
2018-10-06T16:47:03.754Z,8.40
2018-10-06T16:49:32.362Z,8.70
2018-10-06T16:52:01.070Z,7.50
2018-10-06T16:54:29.678Z,7.07
2018-10-06T16:56:58.273Z,8.20
2018-10-06T16:59:26.986Z,7.57
2018-10-06T17:01:55.815Z,8.27
2018-10-06T17:04:24.393Z,8.00
2018-10-06T17:06:53.018Z,9.33
2018-10-06T17:09:21.718Z,8.70
2018-10-06T17:11:50.372Z,10.00
2018-10-06T17:14:19.047Z,11.57
2018-10-06T17:16:47.724Z,10.63
2018-10-06T17:19:16.373Z,9.60
2018-10-06T17:21:45.121Z,11.73
2018-10-06T17:24:13.808Z,11.70
2018-10-06T17:26:42.481Z,13.60
2018-10-06T17:29:11.143Z,14.83
2018-10-06T17:31:39.838Z,25.67
2018-10-06T17:34:08.485Z,19.50
2018-10-06T17:36:37.143Z,14.27
2018-10-06T17:39:07.056Z,13.73
2018-10-06T17:41:35.692Z,13.90
2018-10-06T17:44:04.405Z,13.17
2018-10-06T17:46:33.149Z,10.30
2018-10-06T17:49:01.822Z,13.33
2018-10-06T17:51:30.479Z,17.70
2018-10-06T17:53:59.125Z,10.33
2018-10-06T17:56:27.805Z,11.00
2018-10-06T17:58:56.455Z,12.50
2018-10-06T18:01:25.148Z,10.67
2018-10-06T18:03:53.837Z,11.67
2018-10-06T18:06:22.509Z,11.60
2018-10-06T18:08:51.191Z,13.57
2018-10-06T18:11:19.912Z,11.30
2018-10-06T18:13:48.508Z,14.10
2018-10-06T18:16:17.157Z,13.33
2018-10-06T18:18:45.849Z,14.70
2018-10-06T18:21:14.627Z,15.00
2018-10-06T18:23:43.228Z,17.93
2018-10-06T18:26:11.873Z,13.07
2018-10-06T18:28:40.580Z,13.63
2018-10-06T18:31:09.264Z,15.90
2018-10-06T18:33:37.957Z,15.97
2018-10-06T18:36:06.644Z,20.93
2018-10-06T18:38:35.328Z,19.87
2018-10-06T18:41:03.951Z,20.23
2018-10-06T18:43:32.643Z,22.10
2018-10-06T18:46:01.365Z,25.63
2018-10-06T18:48:29.992Z,34.17
2018-10-06T18:50:58.630Z,29.17
2018-10-06T18:53:27.318Z,36.87
2018-10-06T18:55:56.001Z,34.73
2018-10-06T18:58:24.657Z,37.30
2018-10-06T19:00:53.299Z,30.60
2018-10-06T19:03:21.971Z,27.57
2018-10-06T19:05:50.670Z,30.57
2018-10-06T19:08:19.318Z,30.83
2018-10-06T19:10:48.012Z,31.43
2018-10-06T19:13:16.666Z,34.67
2018-10-06T19:15:45.340Z,33.90
2018-10-06T19:18:14.004Z,30.83
2018-10-06T19:20:42.635Z,33.50
2018-10-06T19:23:11.296Z,38.33
2018-10-06T19:25:40.016Z,35.50
2018-10-06T19:28:08.673Z,35.23
2018-10-06T19:30:37.380Z,34.23
2018-10-06T19:33:06.253Z,37.23
2018-10-06T19:35:34.924Z,37.13
2018-10-06T19:38:03.556Z,37.80
2018-10-06T19:40:32.217Z,39.00
2018-10-06T19:43:00.961Z,38.57
2018-10-06T19:45:29.561Z,42.83
2018-10-06T19:47:58.215Z,35.90
2018-10-06T19:50:26.907Z,43.93
2018-10-06T19:52:55.577Z,35.03
2018-10-06T19:55:24.278Z,39.70
2018-10-06T19:57:52.884Z,35.33
2018-10-06T20:00:21.540Z,39.13
2018-10-06T20:02:50.149Z,38.53
2018-10-06T20:05:18.820Z,41.03
2018-10-06T20:07:47.492Z,41.67
2018-10-06T20:10:16.150Z,34.77
2018-10-06T20:12:44.902Z,36.70
2018-10-06T20:15:13.540Z,38.00
2018-10-06T20:17:42.190Z,35.57
2018-10-06T20:20:10.826Z,43.30
2018-10-06T20:22:39.528Z,41.20
2018-10-06T20:25:08.184Z,40.27
2018-10-06T20:27:36.861Z,39.90
2018-10-06T20:30:05.769Z,43.13
2018-10-06T20:32:34.413Z,41.57
2018-10-06T20:35:03.128Z,42.43
2018-10-06T20:37:31.813Z,42.67
2018-10-06T20:40:00.530Z,42.17
2018-10-06T20:42:29.216Z,60.30
2018-10-06T20:44:57.900Z,51.73
2018-10-06T20:47:26.568Z,47.07
2018-10-06T20:49:55.183Z,52.57
2018-10-06T20:52:23.856Z,54.50
2018-10-06T20:54:52.525Z,49.70
2018-10-06T20:57:21.228Z,45.47
2018-10-06T20:59:49.873Z,47.30
2018-10-06T21:02:18.533Z,51.97
2018-10-06T21:04:47.244Z,52.87
2018-10-06T21:07:15.918Z,55.13
2018-10-06T21:09:44.539Z,50.40
2018-10-06T21:12:13.153Z,57.83
2018-10-06T21:14:41.820Z,54.40
2018-10-06T21:17:10.466Z,65.13
2018-10-06T21:19:39.132Z,71.43
2018-10-06T21:22:07.781Z,65.87
2018-10-06T21:24:36.417Z,70.63
2018-10-06T21:27:05.065Z,77.30
2018-10-06T21:29:33.862Z,79.93
2018-10-06T21:32:02.437Z,72.57
2018-10-06T21:34:31.056Z,78.73
2018-10-06T21:36:59.702Z,88.77
2018-10-06T21:39:28.361Z,78.80
2018-10-06T21:41:57.021Z,90.17
2018-10-06T21:44:25.743Z,86.63
2018-10-06T21:46:54.435Z,80.70
2018-10-06T21:49:23.217Z,87.53
2018-10-06T21:51:51.830Z,81.60
2018-10-06T21:54:20.521Z,84.50
2018-10-06T21:56:49.252Z,75.70
2018-10-06T21:59:17.953Z,78.90
2018-10-06T22:01:46.559Z,83.07
2018-10-06T22:04:15.212Z,84.70
2018-10-06T22:06:43.925Z,86.47
2018-10-06T22:09:12.560Z,88.43
2018-10-06T22:11:41.198Z,90.57
2018-10-06T22:14:09.949Z,93.40
2018-10-06T22:16:38.718Z,93.80
2018-10-06T22:19:07.432Z,97.53
2018-10-06T22:21:36.109Z,102.97
2018-10-06T22:24:04.762Z,105.97
2018-10-06T22:26:33.460Z,114.33
2018-10-06T22:29:02.134Z,134.67
2018-10-06T22:31:30.788Z,135.50
2018-10-06T22:33:59.454Z,137.37
2018-10-06T22:36:28.120Z,145.60
2018-10-06T22:38:56.780Z,143.30
2018-10-06T22:41:25.420Z,159.97
2018-10-06T22:43:54.058Z,154.43
2018-10-06T22:46:22.748Z,149.07
2018-10-06T22:48:51.432Z,161.20
2018-10-06T22:51:20.106Z,153.37
2018-10-06T22:53:48.778Z,157.07
2018-10-06T22:56:17.420Z,150.60
2018-10-06T22:58:46.049Z,161.80
2018-10-06T23:01:14.687Z,161.50
2018-10-06T23:03:43.396Z,155.50
2018-10-06T23:06:12.081Z,166.70
2018-10-06T23:08:40.729Z,158.57
2018-10-06T23:11:09.434Z,163.70
2018-10-06T23:13:38.005Z,162.40
2018-10-06T23:16:06.758Z,167.97
2018-10-06T23:18:35.465Z,165.30
2018-10-06T23:21:04.068Z,171.70
2018-10-06T23:23:32.696Z,164.53
2018-10-06T23:26:01.407Z,171.60
2018-10-06T23:28:30.073Z,163.50
2018-10-06T23:30:58.722Z,166.47
2018-10-06T23:33:27.396Z,153.23
2018-10-06T23:35:55.981Z,162.47
2018-10-06T23:38:25.084Z,167.00
2018-10-06T23:40:53.705Z,166.77
2018-10-06T23:43:22.372Z,166.17
2018-10-06T23:45:50.973Z,180.97
2018-10-06T23:48:19.601Z,161.73
2018-10-06T23:50:48.309Z,155.27
2018-10-06T23:53:16.902Z,160.50
2018-10-06T23:55:45.528Z,147.13
2018-10-06T23:58:14.148Z,141.87
